Time;durP1;ratioP1;P1;durP2;ratioP2;P2;SDS_P1;SDS_P2;PMS_P1;PMS_P2;Temp;Humidity;BMP_temperature;BMP_pressure;BME280_temperature;BME280_humidity;BME280_pressure;Samples;Min_cycle;Max_cycle;Signal;HPM_P1;HPM_P2
2021/04/15 00:02:07;;;;;;;10.75;9.27;;;29.60;97.30;;;;;;5057481;28;20194;-51
2021/04/15 00:04:38;;;;;;;9.57;8.60;;;29.60;97.40;;;;;;5070935;28;20202;-52
2021/04/15 00:07:08;;;;;;;10.13;9.23;;;29.70;97.50;;;;;;5070913;28;20202;-51
2021/04/15 00:09:41;;;;;;;10.50;9.50;;;29.70;97.60;;;;;;5069982;28;20207;-52
2021/04/15 00:12:11;;;;;;;10.23;9.20;;;29.80;97.70;;;;;;5069626;28;20217;-50
2021/04/15 00:14:45;;;;;;;10.45;9.35;;;29.80;97.80;;;;;;5070408;28;20208;-56
2021/04/15 00:17:16;;;;;;;9.82;8.93;;;29.90;97.90;;;;;;5070976;28;20205;-62
2021/04/15 00:19:47;;;;;;;9.57;8.60;;;29.90;97.90;;;;;;5071602;28;20240;-55
2021/04/15 00:22:17;;;;;;;12.25;9.70;;;30.00;97.90;;;;;;5069613;28;20201;-48
2021/04/15 00:24:48;;;;;;;9.57;8.63;;;30.00;97.90;;;;;;5070395;28;20197;-52
2021/04/15 00:27:20;;;;;;;12.07;9.68;;;30.10;97.90;;;;;;5070265;28;20197;-51
2021/04/15 00:29:51;;;;;;;9.60;8.68;;;30.20;97.90;;;;;;5070446;28;20590;-54
2021/04/15 00:32:21;;;;;;;10.63;9.60;;;30.30;98.00;;;;;;5070553;28;20236;-53
2021/04/15 00:34:55;;;;;;;10.10;9.10;;;30.40;97.90;;;;;;5057621;28;20675;-53
2021/04/15 00:37:25;;;;;;;10.30;9.27;;;30.40;97.80;;;;;;5070893;28;20695;-49
2021/04/15 00:39:57;;;;;;;10.27;9.27;;;30.50;97.70;;;;;;5069640;28;20229;-49
2021/04/15 00:42:27;;;;;;;10.35;9.45;;;30.60;97.80;;;;;;5067085;28;20204;-50
2021/04/15 00:44:58;;;;;;;11.27;9.95;;;30.60;97.80;;;;;;5068991;28;20197;-53
2021/04/15 00:47:28;;;;;;;10.10;9.20;;;30.80;97.80;;;;;;4985612;28;20216;-49
2021/04/15 00:49:59;;;;;;;10.40;9.40;;;30.80;97.60;;;;;;4928933;29;20324;-51
2021/04/15 00:52:32;;;;;;;10.00;9.05;;;30.90;97.60;;;;;;4929669;29;20780;-52
2021/04/15 00:55:04;;;;;;;10.00;9.00;;;31.00;97.60;;;;;;4818666;29;20218;-52
2021/04/15 00:57:34;;;;;;;10.43;8.70;;;31.00;97.50;;;;;;4821696;29;20274;-51
2021/04/15 01:00:06;;;;;;;9.45;8.60;;;31.20;97.40;;;;;;4821760;29;20290;-51
2021/04/15 01:02:36;;;;;;;9.18;8.27;;;31.20;97.10;;;;;;4821385;29;20671;-52
2021/04/15 01:05:12;;;;;;;7.78;7.00;;;31.30;97.00;;;;;;4821450;29;20260;-53
2021/04/15 01:07:42;;;;;;;8.13;7.38;;;31.40;96.70;;;;;;4821353;29;20213;-53
2021/04/15 01:10:14;;;;;;;7.32;6.65;;;31.40;96.30;;;;;;4821455;29;20214;-51
2021/04/15 01:13:02;;;;;;;8.68;7.78;;;31.50;95.90;;;;;;4879634;29;20303;-54
2021/04/15 01:15:43;;;;;;;10.15;8.07;;;31.60;95.60;;;;;;4893933;29;20215;-52
2021/04/15 01:18:15;;;;;;;7.80;7.00;;;31.60;95.30;;;;;;4830288;29;20407;-52
2021/04/15 01:21:20;;;;;;;7.03;6.40;;;31.70;95.50;;;;;;4916038;29;20259;-51
2021/04/15 01:23:53;;;;;;;6.80;6.18;;;31.80;94.70;;;;;;4944474;29;20257;-49
2021/04/15 01:27:10;;;;;;;7.30;6.60;;;31.80;95.00;;;;;;4989713;28;20310;-49
2021/04/15 01:29:47;;;;;;;7.88;6.90;;;31.90;93.90;;;;;;4932992;29;20214;-52
2021/04/15 01:32:21;;;;;;;7.93;6.60;;;32.00;93.40;;;;;;5011085;28;20780;-50
2021/04/15 01:34:55;;;;;;;7.45;6.70;;;32.00;92.70;;;;;;5010653;28;20198;-50
2021/04/15 01:37:36;;;;;;;6.35;5.85;;;32.00;92.80;;;;;;5071836;28;20209;-53
2021/04/15 01:40:13;;;;;;;6.85;6.32;;;32.10;92.70;;;;;;5027862;28;20314;-50
2021/04/15 01:42:51;;;;;;;7.32;6.70;;;32.10;92.80;;;;;;4952781;28;20205;-49
2021/04/15 01:45:23;;;;;;;8.32;7.28;;;32.10;92.60;;;;;;4933154;29;20212;-51
2021/04/15 01:47:59;;;;;;;7.82;6.97;;;32.20;92.70;;;;;;4933385;29;20210;-51
2021/04/15 01:50:32;;;;;;;10.50;9.05;;;32.20;93.00;;;;;;4934195;29;20246;-56
2021/04/15 01:53:05;;;;;;;8.75;7.95;;;32.30;92.60;;;;;;4950347;29;20265;-54
2021/04/15 01:55:38;;;;;;;8.57;7.78;;;32.30;92.50;;;;;;4893349;29;20214;-56
2021/04/15 01:58:11;;;;;;;9.57;8.68;;;32.30;92.30;;;;;;4911479;29;20210;-54
2021/04/15 02:00:43;;;;;;;8.82;8.02;;;32.30;92.10;;;;;;4932075;29;20297;-52
2021/04/15 02:03:15;;;;;;;8.68;7.80;;;32.40;91.70;;;;;;4932475;29;20217;-54
2021/04/15 02:05:45;;;;;;;7.78;7.00;;;32.40;91.50;;;;;;4933929;29;20212;-57
2021/04/15 02:08:19;;;;;;;8.15;7.38;;;32.40;91.30;;;;;;4932031;29;20206;-52
2021/04/15 02:10:50;;;;;;;7.63;6.85;;;32.50;91.40;;;;;;4945843;29;20205;-51
2021/04/15 02:13:21;;;;;;;7.82;7.13;;;32.60;91.20;;;;;;4961141;28;20231;-53
2021/04/15 02:15:52;;;;;;;7.93;7.22;;;32.60;91.00;;;;;;5009359;28;20211;-53
2021/04/15 02:18:25;;;;;;;7.65;6.95;;;32.70;91.10;;;;;;5009625;28;20239;-53
2021/04/15 02:20:58;;;;;;;7.85;7.15;;;32.80;91.20;;;;;;4983117;28;20743;-53
2021/04/15 02:23:29;;;;;;;8.32;7.53;;;32.80;91.30;;;;;;4989426;28;20224;-54
2021/04/15 02:26:01;;;;;;;8.63;7.82;;;32.90;90.60;;;;;;4990502;28;20209;-53
2021/04/15 02:28:34;;;;;;;7.57;6.90;;;33.00;90.10;;;;;;4994735;28;20203;-54
2021/04/15 02:31:08;;;;;;;7.60;6.90;;;33.10;90.20;;;;;;4951205;29;20209;-56
2021/04/15 02:33:42;;;;;;;6.85;6.28;;;33.20;89.30;;;;;;4950615;29;20221;-55
2021/04/15 02:36:13;;;;;;;7.47;6.68;;;33.20;88.50;;;;;;4951012;29;20680;-53
2021/04/15 02:38:48;;;;;;;7.78;7.07;;;33.20;88.50;;;;;;4951274;29;20197;-55
2021/04/15 02:41:20;;;;;;;8.30;7.55;;;33.30;87.50;;;;;;4875086;29;20297;-52
2021/04/15 02:43:52;;;;;;;8.27;7.40;;;33.30;86.90;;;;;;4875325;29;20220;-50
2021/04/15 02:46:24;;;;;;;8.02;7.22;;;33.30;86.40;;;;;;4875504;29;20212;-56
2021/04/15 02:48:55;;;;;;;8.18;6.65;;;33.30;85.50;;;;;;4875390;29;20262;-53
2021/04/15 02:51:27;;;;;;;7.03;6.47;;;33.30;86.10;;;;;;4890545;29;20257;-52
2021/04/15 02:54:01;;;;;;;7.70;6.68;;;33.40;86.40;;;;;;4931658;29;20269;-51
2021/04/15 02:56:32;;;;;;;8.23;7.43;;;33.40;86.50;;;;;;4931642;29;20245;-52
2021/04/15 02:59:06;;;;;;;7.65;6.95;;;33.40;85.50;;;;;;4931553;29;20209;-56
2021/04/15 03:01:39;;;;;;;6.93;6.32;;;33.50;85.70;;;;;;4949709;28;20274;-52
2021/04/15 03:04:11;;;;;;;6.80;6.22;;;33.50;86.10;;;;;;4986867;28;20204;-51
2021/04/15 03:06:42;;;;;;;7.38;6.68;;;33.60;86.70;;;;;;4946836;28;20276;-50
2021/04/15 03:09:12;;;;;;;7.65;6.95;;;33.60;84.70;;;;;;4911652;29;20642;-52
2021/04/15 03:11:45;;;;;;;6.40;5.80;;;33.70;83.90;;;;;;4923669;28;20204;-50
2021/04/15 03:14:17;;;;;;;6.22;5.63;;;33.80;83.70;;;;;;4969470;28;20295;-57
2021/04/15 03:16:49;;;;;;;6.75;6.15;;;33.80;84.00;;;;;;4972084;28;20201;-56
2021/04/15 03:19:21;;;;;;;9.88;6.68;;;33.90;83.90;;;;;;4962496;28;20212;-54
2021/04/15 03:21:52;;;;;;;6.22;5.72;;;33.90;82.50;;;;;;4969514;28;20205;-52
2021/04/15 03:24:25;;;;;;;7.53;5.95;;;34.00;83.20;;;;;;4969039;28;20201;-54
2021/04/15 03:26:56;;;;;;;6.07;5.47;;;34.10;82.80;;;;;;4968954;28;20205;-52
2021/04/15 03:29:28;;;;;;;6.88;6.25;;;34.20;81.90;;;;;;4950787;28;20780;-50
2021/04/15 03:32:11;;;;;;;6.65;6.05;;;34.20;81.50;;;;;;4911516;29;20774;-51
2021/04/15 03:34:45;;;;;;;7.30;6.60;;;34.30;80.50;;;;;;4911027;29;20211;-52
2021/04/15 03:37:18;;;;;;;7.07;6.38;;;34.30;80.10;;;;;;4923434;29;20276;-51
2021/04/15 03:39:49;;;;;;;6.80;6.07;;;34.30;80.30;;;;;;4924440;29;20320;-51
2021/04/15 03:42:24;;;;;;;6.25;5.70;;;34.30;79.40;;;;;;4949987;29;20209;-56
2021/04/15 03:44:57;;;;;;;6.75;6.07;;;34.30;79.30;;;;;;4949625;29;20215;-55
2021/04/15 03:47:31;;;;;;;6.78;6.18;;;34.40;80.40;;;;;;4949469;29;20250;-51
2021/04/15 03:50:01;;;;;;;7.55;6.78;;;34.40;80.20;;;;;;4948874;28;20296;-54
2021/04/15 03:52:33;;;;;;;7.93;7.13;;;34.50;79.60;;;;;;4911203;29;20265;-53
2021/04/15 03:55:14;;;;;;;6.63;6.03;;;34.50;78.30;;;;;;4873528;29;20215;-55
2021/04/15 03:57:44;;;;;;;7.00;6.40;;;34.60;77.90;;;;;;4854934;29;20227;-52
2021/04/15 04:00:15;;;;;;;6.82;6.22;;;34.70;78.40;;;;;;4855959;29;20304;-54
2021/04/15 04:02:52;;;;;;;6.80;5.95;;;34.70;77.90;;;;;;4855776;29;20211;-52
2021/04/15 04:05:24;;;;;;;7.07;6.47;;;34.70;76.90;;;;;;4836686;29;20601;-54
2021/04/15 04:07:55;;;;;;;6.53;5.90;;;34.70;77.30;;;;;;4836842;29;20296;-50
2021/04/15 04:10:27;;;;;;;7.20;6.60;;;34.80;77.60;;;;;;4855352;29;20679;-53
2021/04/15 04:13:17;;;;;;;6.90;6.22;;;34.90;77.30;;;;;;4892324;29;20231;-52
2021/04/15 04:15:49;;;;;;;6.50;5.90;;;34.90;74.80;;;;;;4873696;29;20220;-53
2021/04/15 04:18:23;;;;;;;6.00;5.50;;;34.90;75.50;;;;;;4873326;29;20606;-52
2021/04/15 04:20:56;;;;;;;6.70;6.10;;;35.00;77.10;;;;;;4876007;29;20202;-54
2021/04/15 04:23:36;;;;;;;7.97;6.70;;;35.00;76.60;;;;;;4882949;29;20204;-51
2021/04/15 04:26:10;;;;;;;7.68;6.85;;;35.10;75.60;;;;;;4908255;29;20202;-54
2021/04/15 04:28:42;;;;;;;6.93;6.32;;;35.10;74.60;;;;;;4946025;28;20259;-52
2021/04/15 04:31:17;;;;;;;6.10;5.60;;;35.20;75.20;;;;;;4946801;28;20703;-54
2021/04/15 04:33:51;;;;;;;7.10;6.50;;;35.30;76.00;;;;;;4948241;28;20370;-53
2021/04/15 04:36:22;;;;;;;6.55;6.00;;;35.30;73.10;;;;;;4917237;29;20289;-51
2021/04/15 04:38:53;;;;;;;6.63;6.03;;;35.40;74.40;;;;;;4920721;29;20706;-52
2021/04/15 04:41:26;;;;;;;6.07;5.25;;;35.50;74.70;;;;;;4950658;28;20264;-53
2021/04/15 04:43:58;;;;;;;6.05;5.55;;;35.50;75.30;;;;;;5001687;28;20222;-54
2021/04/15 04:46:33;;;;;;;7.40;6.70;;;35.60;76.40;;;;;;4964993;28;20232;-49
2021/04/15 04:49:06;;;;;;;7.25;6.60;;;35.70;73.60;;;;;;4961221;28;20660;-51
2021/04/15 04:51:45;;;;;;;6.93;6.18;;;35.80;71.90;;;;;;4965886;28;20199;-50
2021/04/15 04:54:16;;;;;;;7.72;6.95;;;35.80;73.00;;;;;;4960451;28;20699;-54
2021/04/15 04:56:48;;;;;;;7.10;6.40;;;35.80;72.20;;;;;;4961932;28;20208;-51
2021/04/15 04:59:20;;;;;;;7.30;6.60;;;35.90;71.90;;;;;;4959418;28;20639;-51
2021/04/15 05:01:50;;;;;;;9.93;6.68;;;35.90;71.60;;;;;;4963000;28;20204;-53
2021/04/15 05:04:23;;;;;;;6.65;6.05;;;35.90;71.90;;;;;;4936561;29;20237;-51
2021/04/15 05:06:53;;;;;;;6.90;6.30;;;35.80;72.10;;;;;;4948631;28;20839;-53
2021/04/15 05:09:25;;;;;;;7.03;6.43;;;35.90;71.20;;;;;;4922113;29;20926;-52
2021/04/15 05:11:55;;;;;;;6.40;5.80;;;36.00;71.50;;;;;;4941267;29;20236;-52
2021/04/15 05:14:27;;;;;;;6.60;6.00;;;36.00;72.50;;;;;;4949017;29;20546;-53
2021/04/15 05:17:00;;;;;;;6.30;5.70;;;36.10;72.60;;;;;;4948427;29;20204;-51
2021/04/15 05:19:32;;;;;;;6.53;5.93;;;36.20;72.80;;;;;;4956535;28;20893;-52
2021/04/15 05:22:03;;;;;;;6.95;6.15;;;36.20;70.80;;;;;;4986926;28;20197;-49
2021/04/15 05:24:36;;;;;;;6.20;5.63;;;36.30;70.10;;;;;;4985242;28;20196;-52
2021/04/15 05:27:06;;;;;;;7.18;6.50;;;36.30;70.10;;;;;;4923322;29;20702;-51
2021/04/15 05:29:39;;;;;;;7.55;6.63;;;36.40;69.10;;;;;;4923972;29;20214;-52
2021/04/15 05:32:11;;;;;;;7.35;6.25;;;36.40;68.00;;;;;;4923913;29;20250;-52
2021/04/15 05:34:45;;;;;;;6.00;5.50;;;36.40;68.20;;;;;;4905653;29;20298;-53
2021/04/15 05:37:17;;;;;;;7.55;6.78;;;36.50;68.90;;;;;;4919421;29;20221;-50
2021/04/15 05:39:47;;;;;;;6.65;6.05;;;36.40;68.10;;;;;;4929407;28;20611;-51
2021/04/15 05:42:21;;;;;;;5.97;5.47;;;36.50;68.30;;;;;;4963253;28;21527;-52
2021/04/15 05:44:54;;;;;;;6.10;5.60;;;36.60;68.20;;;;;;4961836;28;20190;-52
2021/04/15 05:47:25;;;;;;;7.07;6.38;;;36.60;68.60;;;;;;4963598;28;20205;-51
2021/04/15 05:50:01;;;;;;;6.45;5.90;;;36.60;67.70;;;;;;4965578;28;20240;-52
2021/04/15 05:52:32;;;;;;;6.68;6.07;;;36.60;68.20;;;;;;4913007;29;20225;-54
2021/04/15 05:55:06;;;;;;;7.57;5.90;;;36.60;68.60;;;;;;4913639;29;20283;-55
2021/04/15 05:57:38;;;;;;;6.53;5.53;;;36.50;67.30;;;;;;4928764;28;20203;-54
2021/04/15 06:00:12;;;;;;;5.55;5.05;;;36.60;68.00;;;;;;5005823;28;20210;-51
2021/04/15 06:02:51;;;;;;;6.60;6.00;;;36.60;68.00;;;;;;4996849;28;20195;-52
2021/04/15 06:05:26;;;;;;;8.00;6.50;;;36.50;67.60;;;;;;4971601;28;20236;-54
2021/04/15 06:07:58;;;;;;;6.13;5.53;;;36.40;68.60;;;;;;4974136;28;20200;-54
2021/04/15 06:10:29;;;;;;;6.75;6.05;;;36.40;68.30;;;;;;4970733;28;20201;-51
2021/04/15 06:13:02;;;;;;;6.00;5.50;;;36.30;68.20;;;;;;4972922;28;20236;-51
2021/04/15 06:15:34;;;;;;;8.25;6.30;;;36.20;68.00;;;;;;4954335;28;20913;-47
2021/04/15 06:18:09;;;;;;;6.53;5.93;;;36.20;68.70;;;;;;4991666;28;20266;-49
2021/04/15 06:20:42;;;;;;;9.88;5.75;;;36.10;68.20;;;;;;4995454;28;20215;-49
2021/04/15 06:23:16;;;;;;;8.90;7.03;;;36.10;69.20;;;;;;4994625;28;20257;-51
2021/04/15 06:25:47;;;;;;;7.00;6.30;;;36.10;68.50;;;;;;4991856;28;20196;-49
2021/04/15 06:28:19;;;;;;;6.72;6.03;;;36.10;68.90;;;;;;4988788;28;20215;-52
2021/04/15 06:31:09;;;;;;;6.60;6.00;;;36.00;69.10;;;;;;4986404;28;20210;-50
2021/04/15 06:33:40;;;;;;;6.32;5.72;;;36.00;69.70;;;;;;5000912;28;20259;-48
2021/04/15 06:36:33;;;;;;;6.10;5.60;;;36.00;69.70;;;;;;4997828;28;20208;-48
2021/04/15 06:39:15;;;;;;;5.97;5.47;;;36.00;68.90;;;;;;4999095;28;20203;-50
2021/04/15 06:42:03;;;;;;;6.85;6.15;;;36.00;69.40;;;;;;5012492;28;20214;-52
2021/04/15 06:45:09;;;;;;;6.20;5.60;;;36.00;68.90;;;;;;5017646;28;20208;-50
2021/04/15 06:47:58;;;;;;;5.80;5.30;;;36.00;69.20;;;;;;5022640;28;20300;-50
2021/04/15 06:50:31;;;;;;;7.45;6.32;;;36.00;69.40;;;;;;5014229;28;20567;-51
2021/04/15 06:53:36;;;;;;;5.93;5.43;;;36.10;69.60;;;;;;5014829;28;20233;-53
2021/04/15 06:56:21;;;;;;;5.40;5.00;;;36.10;69.40;;;;;;5013407;28;20201;-51
2021/04/15 06:59:38;;;;;;;6.15;5.63;;;36.00;69.10;;;;;;5064712;28;20201;-53
2021/04/15 07:02:10;;;;;;;6.00;5.10;;;35.90;69.10;;;;;;4992383;28;20204;-53
2021/04/15 07:04:45;;;;;;;5.93;5.32;;;35.80;69.10;;;;;;4989904;28;20207;-54
2021/04/15 07:07:19;;;;;;;6.97;5.50;;;35.70;69.10;;;;;;5034340;28;20227;-52
2021/04/15 07:10:00;;;;;;;6.95;5.70;;;35.70;69.40;;;;;;5071338;28;20201;-54
2021/04/15 07:13:08;;;;;;;5.88;5.28;;;35.60;69.60;;;;;;5008371;28;20238;-49
2021/04/15 07:16:19;;;;;;;5.25;4.63;;;35.50;70.40;;;;;;5008859;28;20221;-56
2021/04/15 07:19:38;;;;;;;4.90;4.50;;;35.50;71.30;;;;;;4979604;28;20214;-50
2021/04/15 07:22:45;;;;;;;4.57;4.18;;;35.40;71.80;;;;;;4924950;29;20218;-51
2021/04/15 07:25:23;;;;;;;3.85;3.45;;;35.40;71.90;;;;;;4903520;29;20210;-51
2021/04/15 07:28:11;;;;;;;3.10;2.80;;;35.40;70.70;;;;;;4995262;28;20223;-52
2021/04/15 07:31:00;;;;;;;2.72;2.53;;;35.40;69.60;;;;;;4990283;28;20208;-56
2021/04/15 07:33:50;;;;;;;3.15;2.45;;;35.40;69.30;;;;;;4990737;28;20232;-56
2021/04/15 07:36:38;;;;;;;2.92;2.72;;;35.40;69.70;;;;;;4943634;28;20200;-54
2021/04/15 07:39:30;;;;;;;2.58;2.25;;;35.40;69.50;;;;;;4934034;29;20233;-51
2021/04/15 07:42:24;;;;;;;2.50;2.30;;;35.30;69.30;;;;;;4931259;29;20367;-52
2021/04/15 07:44:56;;;;;;;2.50;2.30;;;35.20;69.20;;;;;;4912400;29;20203;-52
2021/04/15 07:48:12;;;;;;;2.33;2.13;;;35.20;69.40;;;;;;4911737;29;20211;-55
2021/04/15 07:51:14;;;;;;;3.25;1.95;;;35.10;69.60;;;;;;4916798;29;20225;-52
2021/04/15 07:54:17;;;;;;;2.67;1.90;;;35.10;69.60;;;;;;4898688;29;20282;-54
2021/04/15 07:57:08;;;;;;;1.92;1.73;;;35.10;69.80;;;;;;4916783;29;20273;-51
2021/04/15 08:00:02;;;;;;;2.17;1.80;;;35.00;69.60;;;;;;4891007;29;20503;-55
2021/04/15 08:02:49;;;;;;;2.35;1.75;;;34.90;69.80;;;;;;4896619;28;20281;-54
2021/04/15 08:06:12;;;;;;;2.05;1.85;;;34.90;70.30;;;;;;4933167;28;20210;-50
2021/04/15 08:08:55;;;;;;;2.80;2.60;;;34.80;70.50;;;;;;4921831;28;20253;-53
2021/04/15 08:11:47;;;;;;;2.05;1.92;;;34.80;70.30;;;;;;4940751;28;20249;-51
2021/04/15 08:14:39;;;;;;;5.25;2.03;;;34.70;71.10;;;;;;4933996;28;20309;-55
2021/04/15 08:17:25;;;;;;;2.30;2.10;;;34.70;71.70;;;;;;4935654;28;20253;-51
2021/04/15 08:20:16;;;;;;;2.67;2.20;;;34.60;71.90;;;;;;4948469;28;20486;-51
2021/04/15 08:23:15;;;;;;;4.05;2.35;;;34.60;71.80;;;;;;4976980;28;20196;-52
2021/04/15 08:25:55;;;;;;;2.15;1.95;;;34.60;72.30;;;;;;4977449;28;20207;-55
2021/04/15 08:28:50;;;;;;;3.25;2.28;;;34.60;72.40;;;;;;4943249;28;20609;-53
2021/04/15 08:31:24;;;;;;;2.92;2.55;;;34.60;73.70;;;;;;4971726;28;20209;-52
2021/04/15 08:33:59;;;;;;;2.60;2.40;;;34.60;73.40;;;;;;4940861;28;20704;-50
2021/04/15 08:36:55;;;;;;;3.33;3.03;;;34.60;73.70;;;;;;4957015;28;20596;-53
2021/04/15 08:39:41;;;;;;;3.22;2.90;;;34.70;73.70;;;;;;4970696;28;20221;-52
2021/04/15 08:42:28;;;;;;;4.55;3.63;;;34.80;73.80;;;;;;4970283;28;20196;-50
2021/04/15 08:45:40;;;;;;;4.18;3.78;;;34.90;73.70;;;;;;4941658;28;20212;-51
2021/04/15 08:48:29;;;;;;;6.05;3.92;;;35.00;72.70;;;;;;4932600;28;20214;-56
2021/04/15 08:51:08;;;;;;;4.70;4.30;;;35.20;73.10;;;;;;4932322;29;20798;-53
2021/04/15 08:53:58;;;;;;;3.92;3.60;;;35.30;72.50;;;;;;4931353;29;20269;-50
2021/04/15 08:56:30;;;;;;;4.35;4.03;;;35.40;72.60;;;;;;4896474;29;20203;-54
2021/04/15 08:59:23;;;;;;;4.65;4.25;;;35.50;72.70;;;;;;4897798;29;20248;-55
2021/04/15 09:02:03;;;;;;;5.03;4.53;;;35.60;72.50;;;;;;4909811;29;20238;-51
2021/04/15 09:04:45;;;;;;;5.18;4.38;;;35.70;72.60;;;;;;4886670;29;20224;-54
2021/04/15 09:07:17;;;;;;;4.32;3.97;;;35.80;72.40;;;;;;4855199;29;20248;-54
2021/04/15 09:10:02;;;;;;;5.28;4.78;;;35.90;72.40;;;;;;4857741;29;20235;-52
2021/04/15 09:12:56;;;;;;;5.35;4.90;;;36.00;71.90;;;;;;4858151;29;20216;-54
2021/04/15 09:15:29;;;;;;;4.97;4.40;;;36.10;71.10;;;;;;4830455;29;20206;-49
2021/04/15 09:18:02;;;;;;;5.68;5.18;;;36.20;71.50;;;;;;4839278;29;20272;-51
2021/04/15 09:20:35;;;;;;;5.28;4.80;;;36.20;71.20;;;;;;4855712;29;20553;-55
2021/04/15 09:23:31;;;;;;;5.18;4.70;;;36.30;70.90;;;;;;4901236;29;20306;-52
2021/04/15 09:26:07;;;;;;;5.50;5.05;;;36.50;70.60;;;;;;4870086;29;20273;-51
2021/04/15 09:28:39;;;;;;;5.50;4.90;;;36.60;70.50;;;;;;4859878;29;20211;-51
2021/04/15 09:31:16;;;;;;;5.15;4.75;;;36.60;70.10;;;;;;4870883;29;20260;-53
2021/04/15 09:34:21;;;;;;;5.00;4.70;;;36.70;69.60;;;;;;4853282;29;21214;-51
2021/04/15 09:36:59;;;;;;;5.75;5.25;;;36.80;70.10;;;;;;4872674;29;20235;-52
2021/04/15 09:39:47;;;;;;;6.75;5.18;;;36.90;69.00;;;;;;4881802;29;20223;-53
2021/04/15 09:42:35;;;;;;;6.80;5.20;;;37.00;68.90;;;;;;4886470;29;20821;-52
2021/04/15 09:45:18;;;;;;;6.50;5.88;;;37.10;68.50;;;;;;4939179;29;20666;-54
2021/04/15 09:48:03;;;;;;;6.32;5.70;;;37.20;67.80;;;;;;4900772;29;20674;-51
2021/04/15 09:50:35;;;;;;;6.43;5.82;;;37.30;68.00;;;;;;4897272;29;20250;-53
2021/04/15 09:53:10;;;;;;;6.57;5.97;;;37.30;68.30;;;;;;4926385;29;20275;-49
2021/04/15 09:55:59;;;;;;;6.80;6.20;;;37.40;67.90;;;;;;4931953;29;20841;-52
2021/04/15 09:58:31;;;;;;;6.80;6.03;;;37.50;68.20;;;;;;4947350;29;20217;-54
2021/04/15 10:01:03;;;;;;;7.07;6.47;;;37.60;68.10;;;;;;4890564;29;20207;-51
2021/04/15 10:03:41;;;;;;;7.30;6.57;;;37.60;66.70;;;;;;4893467;29;20209;-51
2021/04/15 10:06:18;;;;;;;6.55;5.95;;;37.70;66.50;;;;;;4875076;29;20207;-54
2021/04/15 10:09:15;;;;;;;7.22;6.55;;;37.70;66.90;;;;;;4875451;29;20231;-50
2021/04/15 10:12:16;;;;;;;6.68;6.13;;;37.80;66.70;;;;;;4899107;29;20222;-51
2021/04/15 10:15:05;;;;;;;6.35;5.85;;;37.80;64.30;;;;;;4902017;29;20269;-53
2021/04/15 10:17:41;;;;;;;6.25;5.75;;;37.80;65.70;;;;;;4902485;29;20291;-51
2021/04/15 10:20:35;;;;;;;6.10;5.50;;;37.80;65.10;;;;;;4865505;29;20706;-53
2021/04/15 10:23:32;;;;;;;5.95;5.35;;;37.70;64.80;;;;;;4856800;29;20217;-49
2021/04/15 10:26:04;;;;;;;6.07;5.57;;;37.70;64.90;;;;;;4867819;29;20215;-52
2021/04/15 10:28:53;;;;;;;7.10;5.82;;;37.70;65.60;;;;;;4893543;29;20218;-50
2021/04/15 10:31:47;;;;;;;6.63;5.85;;;37.70;64.40;;;;;;4883189;29;20211;-51
2021/04/15 10:34:38;;;;;;;6.03;5.43;;;37.90;64.10;;;;;;4894031;29;20243;-53
2021/04/15 10:37:23;;;;;;;5.63;4.95;;;38.10;64.00;;;;;;4875485;29;20270;-54
2021/04/15 10:40:20;;;;;;;6.22;5.68;;;38.30;63.40;;;;;;4885815;29;20656;-50
2021/04/15 10:43:38;;;;;;;5.20;4.80;;;38.50;62.00;;;;;;4864354;29;20315;-55
2021/04/15 10:46:37;;;;;;;6.65;5.25;;;38.80;61.00;;;;;;4867675;29;20251;-54
2021/04/15 10:49:16;;;;;;;5.22;4.82;;;39.00;61.00;;;;;;4894189;29;20244;-51
2021/04/15 10:51:52;;;;;;;4.55;4.15;;;39.20;61.30;;;;;;4952683;29;20242;-54
2021/04/15 10:54:29;;;;;;;4.43;4.03;;;39.30;62.00;;;;;;4965612;28;20238;-51
2021/04/15 10:57:05;;;;;;;4.28;3.88;;;39.50;62.10;;;;;;4916613;29;20207;-51
2021/04/15 10:59:37;;;;;;;4.60;4.20;;;39.60;61.50;;;;;;4950830;28;20224;-50
2021/04/15 11:02:26;;;;;;;4.78;4.38;;;39.60;60.70;;;;;;4958347;28;20301;-51
2021/04/15 11:05:00;;;;;;;4.63;4.22;;;39.60;59.70;;;;;;4943532;29;20304;-53
2021/04/15 11:07:31;;;;;;;5.45;4.80;;;39.40;59.70;;;;;;4987373;28;20207;-55
2021/04/15 11:10:01;;;;;;;6.38;5.53;;;39.30;59.90;;;;;;4947502;29;20213;-52
2021/04/15 11:12:37;;;;;;;5.57;5.07;;;39.00;59.80;;;;;;4913117;29;20255;-56
2021/04/15 11:15:18;;;;;;;6.43;5.82;;;38.70;60.10;;;;;;4915837;29;20231;-50
2021/04/15 11:17:50;;;;;;;6.07;5.45;;;38.40;60.80;;;;;;4912765;29;20214;-51
2021/04/15 11:20:35;;;;;;;6.35;5.72;;;38.10;61.30;;;;;;4916477;29;20269;-57
2021/04/15 11:23:07;;;;;;;6.97;6.05;;;37.80;62.10;;;;;;4920746;29;20266;-56
2021/04/15 11:25:40;;;;;;;6.43;5.75;;;37.60;62.50;;;;;;4912348;29;20217;-53
2021/04/15 11:28:13;;;;;;;10.00;7.35;;;37.30;63.10;;;;;;4934722;29;20213;-51
2021/04/15 11:30:47;;;;;;;11.88;10.15;;;37.10;64.10;;;;;;4941216;29;20289;-51
2021/04/15 11:33:41;;;;;;;8.82;7.90;;;36.90;65.20;;;;;;4931239;29;20226;-52
2021/04/15 11:36:14;;;;;;;37.33;30.70;;;36.70;66.70;;;;;;4938987;28;20205;-50
2021/04/15 11:38:45;;;;;;;76.45;60.13;;;36.50;66.30;;;;;;4967791;28;20208;-50
2021/04/15 11:41:24;;;;;;;209.88;172.10;;;36.40;66.60;;;;;;5002649;28;20209;-55
2021/04/15 11:44:04;;;;;;;234.98;189.13;;;36.30;67.20;;;;;;5049843;28;20247;-57
2021/04/15 11:46:38;;;;;;;128.95;105.03;;;36.20;67.80;;;;;;5067894;28;20219;-49
2021/04/15 11:49:10;;;;;;;135.18;110.85;;;36.10;68.00;;;;;;5069402;28;20653;-50
2021/04/15 11:51:42;;;;;;;203.45;155.68;;;35.90;68.30;;;;;;5069920;28;20209;-53
2021/04/15 11:54:27;;;;;;;180.20;140.18;;;35.80;68.50;;;;;;5068759;28;20221;-51
2021/04/15 11:56:57;;;;;;;151.88;119.15;;;35.80;69.20;;;;;;5065845;28;20201;-51
2021/04/15 11:59:33;;;;;;;69.95;56.05;;;35.60;69.00;;;;;;5069931;28;20197;-51
2021/04/15 12:02:18;;;;;;;29.38;23.98;;;35.50;69.10;;;;;;5069507;28;20338;-51
2021/04/15 12:04:53;;;;;;;15.18;13.05;;;35.50;70.10;;;;;;5067504;28;20185;-54
2021/04/15 12:07:25;;;;;;;11.10;9.75;;;35.40;69.90;;;;;;5066084;28;20185;-52
2021/04/15 12:09:56;;;;;;;11.73;10.18;;;35.30;70.10;;;;;;5062671;28;20221;-50
2021/04/15 12:12:29;;;;;;;12.40;10.85;;;35.20;70.60;;;;;;5062221;28;20216;-51
2021/04/15 12:14:59;;;;;;;8.85;7.95;;;35.10;71.20;;;;;;5021242;28;20261;-53
2021/04/15 12:17:33;;;;;;;7.72;6.40;;;35.10;71.50;;;;;;5019925;28;20202;-50
2021/04/15 12:20:16;;;;;;;7.80;6.53;;;35.00;71.90;;;;;;5026120;28;20210;-54
2021/04/15 12:22:56;;;;;;;6.15;5.55;;;35.00;72.50;;;;;;5027072;28;20206;-52
2021/04/15 12:25:28;;;;;;;6.47;5.88;;;34.90;72.70;;;;;;5024391;28;20646;-56
2021/04/15 12:28:12;;;;;;;5.72;5.18;;;34.80;72.60;;;;;;5027690;28;20249;-53
2021/04/15 12:30:42;;;;;;;6.82;6.13;;;34.70;73.20;;;;;;5021783;28;20195;-51
2021/04/15 12:33:14;;;;;;;6.97;5.93;;;34.70;73.10;;;;;;5049814;28;20605;-54
2021/04/15 12:35:48;;;;;;;8.25;7.45;;;34.60;73.30;;;;;;5047736;28;20262;-54
2021/04/15 12:38:19;;;;;;;29.67;25.25;;;34.50;73.40;;;;;;5049595;28;20686;-51
2021/04/15 12:40:51;;;;;;;32.97;29.48;;;34.50;73.80;;;;;;4988824;28;20742;-55
2021/04/15 12:43:27;;;;;;;27.02;24.13;;;34.40;73.90;;;;;;4990638;28;20196;-55
2021/04/15 12:45:58;;;;;;;16.05;14.45;;;34.40;74.00;;;;;;4972334;28;20205;-56
2021/04/15 12:48:38;;;;;;;11.23;10.02;;;34.30;74.10;;;;;;4975464;28;20239;-55
2021/04/15 12:51:12;;;;;;;9.02;8.23;;;34.30;74.90;;;;;;4974169;28;20204;-52
2021/04/15 12:53:44;;;;;;;7.03;6.32;;;34.20;74.90;;;;;;4972153;28;20331;-55
2021/04/15 12:56:17;;;;;;;12.77;9.75;;;34.20;75.20;;;;;;4973365;28;20358;-56
2021/04/15 12:58:48;;;;;;;32.42;21.90;;;34.10;75.40;;;;;;4972864;28;20625;-52
2021/04/15 13:01:18;;;;;;;15.55;13.23;;;34.00;75.50;;;;;;4972238;28;20246;-55
2021/04/15 13:03:49;;;;;;;10.85;9.25;;;34.00;75.60;;;;;;4973087;28;20200;-49
2021/04/15 13:06:21;;;;;;;8.43;7.25;;;34.00;75.90;;;;;;4978373;28;20204;-56
2021/04/15 13:08:52;;;;;;;8.32;6.88;;;34.00;76.30;;;;;;4984537;28;20208;-53
2021/04/15 13:11:38;;;;;;;7.82;7.07;;;33.90;76.40;;;;;;5017600;28;20198;-50
2021/04/15 13:14:42;;;;;;;8.25;7.05;;;33.90;77.10;;;;;;5063790;28;20209;-51
2021/04/15 13:17:13;;;;;;;7.68;6.97;;;33.80;77.20;;;;;;5063272;28;20613;-50
2021/04/15 13:20:02;;;;;;;8.57;7.78;;;33.70;77.40;;;;;;5068185;28;20205;-56
2021/04/15 13:22:36;;;;;;;10.73;7.93;;;33.70;77.50;;;;;;5068150;28;20236;-53
2021/04/15 13:25:17;;;;;;;10.90;8.30;;;33.70;77.20;;;;;;5068106;28;20197;-50
2021/04/15 13:28:04;;;;;;;8.43;7.53;;;33.60;77.80;;;;;;4999631;28;20199;-52
2021/04/15 13:30:52;;;;;;;10.55;8.48;;;33.50;78.00;;;;;;5006372;28;20211;-54
2021/04/15 13:33:22;;;;;;;9.52;8.63;;;33.50;77.60;;;;;;5006314;28;20203;-55
2021/04/15 13:35:54;;;;;;;9.13;8.23;;;33.40;77.60;;;;;;5004026;28;21095;-54
2021/04/15 13:38:44;;;;;;;8.95;8.10;;;33.40;77.80;;;;;;5003773;28;20634;-55
2021/04/15 13:41:39;;;;;;;9.50;8.50;;;33.40;78.50;;;;;;5005413;28;20199;-53